createdAt,value
2017-10-29T00:00:18.028Z,0
2017-10-29T00:00:44.152Z,0
2017-10-29T00:01:10.323Z,0
2017-10-29T00:01:36.433Z,0
2017-10-29T00:02:02.601Z,0
2017-10-29T00:02:28.743Z,0
2017-10-29T00:02:54.863Z,0
2017-10-29T00:03:20.982Z,0
2017-10-29T00:03:47.132Z,0
2017-10-29T00:04:13.244Z,0
2017-10-29T00:04:39.365Z,0
2017-10-29T00:05:05.497Z,0
2017-10-29T00:05:31.660Z,0
2017-10-29T00:05:57.760Z,0
2017-10-29T00:06:23.880Z,0
2017-10-29T00:06:50.023Z,0
2017-10-29T00:07:16.145Z,0
2017-10-29T00:07:42.267Z,0
2017-10-29T00:08:08.412Z,0
2017-10-29T00:08:37.572Z,0
2017-10-29T00:09:03.710Z,0
2017-10-29T00:09:29.854Z,0
2017-10-29T00:09:55.983Z,0
2017-10-29T00:10:22.131Z,0
2017-10-29T00:10:48.257Z,0
2017-10-29T00:11:14.374Z,0
2017-10-29T00:11:40.514Z,0
2017-10-29T00:12:06.640Z,0
2017-10-29T00:12:32.778Z,0
2017-10-29T00:12:58.923Z,0
2017-10-29T00:13:25.038Z,0
2017-10-29T00:13:51.200Z,0
2017-10-29T00:14:17.320Z,0
2017-10-29T00:14:43.448Z,0
2017-10-29T00:15:09.570Z,0
2017-10-29T00:15:35.693Z,0
2017-10-29T00:16:01.839Z,0
2017-10-29T00:16:27.963Z,0
2017-10-29T00:16:54.080Z,0
2017-10-29T00:17:20.208Z,0
2017-10-29T00:17:46.364Z,0
2017-10-29T00:18:12.489Z,0
2017-10-29T00:18:38.611Z,0
2017-10-29T00:19:04.729Z,0
2017-10-29T00:19:30.856Z,0
2017-10-29T00:19:56.980Z,0
2017-10-29T00:20:23.097Z,0
2017-10-29T00:20:49.221Z,0
2017-10-29T00:21:15.349Z,0
2017-10-29T00:21:41.474Z,0
2017-10-29T00:22:07.637Z,0
2017-10-29T00:22:33.964Z,0
2017-10-29T00:23:00.086Z,0
2017-10-29T00:23:26.212Z,0
2017-10-29T00:23:52.329Z,0
2017-10-29T00:24:18.457Z,0
2017-10-29T00:24:44.578Z,0
2017-10-29T00:25:10.698Z,0
2017-10-29T00:25:36.828Z,0
2017-10-29T00:26:02.946Z,0
2017-10-29T00:26:29.076Z,0
2017-10-29T00:26:55.199Z,0
2017-10-29T00:27:21.329Z,0
2017-10-29T00:27:47.446Z,0
2017-10-29T00:28:13.576Z,0
2017-10-29T00:28:39.701Z,0
2017-10-29T00:29:05.825Z,0
2017-10-29T00:29:31.947Z,0
2017-10-29T00:29:58.072Z,0
2017-10-29T00:30:24.200Z,0
2017-10-29T00:30:50.321Z,0
2017-10-29T00:31:16.491Z,0
2017-10-29T00:31:42.606Z,0
2017-10-29T00:32:08.735Z,0
2017-10-29T00:32:34.852Z,0
2017-10-29T00:33:00.982Z,0
2017-10-29T00:33:27.099Z,0
2017-10-29T00:33:53.227Z,0
2017-10-29T00:34:19.345Z,0
2017-10-29T00:34:45.496Z,0
2017-10-29T00:35:11.619Z,0
2017-10-29T00:35:37.755Z,0
2017-10-29T00:36:03.873Z,0
2017-10-29T00:36:29.995Z,0
2017-10-29T00:36:56.118Z,0
2017-10-29T00:37:22.236Z,0
2017-10-29T00:37:48.396Z,0
2017-10-29T00:38:14.489Z,0
2017-10-29T00:38:40.626Z,0
2017-10-29T00:39:06.750Z,0
2017-10-29T00:39:32.877Z,0
2017-10-29T00:39:58.996Z,0
2017-10-29T00:40:25.161Z,0
2017-10-29T00:40:51.279Z,0
2017-10-29T00:41:17.408Z,0
2017-10-29T00:41:43.526Z,0
2017-10-29T00:42:09.651Z,0
2017-10-29T00:42:35.806Z,0
2017-10-29T00:43:01.919Z,0
2017-10-29T00:43:28.048Z,0
2017-10-29T00:43:54.172Z,0
2017-10-29T00:44:20.327Z,0
2017-10-29T00:44:46.464Z,0
2017-10-29T00:45:12.587Z,0
2017-10-29T00:45:38.714Z,0
2017-10-29T00:46:04.832Z,0
2017-10-29T00:46:30.961Z,0
2017-10-29T00:46:57.086Z,0
2017-10-29T00:47:23.204Z,0
2017-10-29T00:47:49.338Z,0
2017-10-29T00:48:15.457Z,0
2017-10-29T00:48:41.612Z,0
2017-10-29T00:49:07.736Z,0
2017-10-29T00:49:33.864Z,0
2017-10-29T00:49:59.988Z,0
2017-10-29T00:50:26.138Z,0
2017-10-29T00:50:52.258Z,0
2017-10-29T00:51:18.377Z,0
2017-10-29T00:51:44.501Z,0
2017-10-29T00:52:10.629Z,0
2017-10-29T00:52:36.765Z,0
2017-10-29T00:53:02.940Z,0
2017-10-29T00:53:29.064Z,0
2017-10-29T00:53:55.186Z,0
2017-10-29T00:54:21.306Z,0
2017-10-29T00:54:47.431Z,0
2017-10-29T00:55:13.558Z,0
2017-10-29T00:55:39.679Z,0
2017-10-29T00:56:05.805Z,0
2017-10-29T00:56:31.965Z,0
2017-10-29T00:56:58.081Z,0
2017-10-29T00:57:24.226Z,0
2017-10-29T00:57:50.354Z,0
2017-10-29T00:58:16.482Z,0
2017-10-29T00:58:42.598Z,0
2017-10-29T00:59:08.726Z,0
2017-10-29T00:59:34.839Z,0
2017-10-29T01:00:00.969Z,0
2017-10-29T01:00:27.109Z,0
2017-10-29T01:00:53.224Z,0
2017-10-29T01:01:19.353Z,0
2017-10-29T01:01:45.477Z,0
2017-10-29T01:02:11.596Z,0
2017-10-29T01:02:37.723Z,0
2017-10-29T01:03:03.844Z,0
2017-10-29T01:03:29.969Z,0
2017-10-29T01:03:56.094Z,0
2017-10-29T01:04:22.215Z,0
2017-10-29T01:04:48.340Z,0
2017-10-29T01:05:14.515Z,0
2017-10-29T01:05:40.621Z,0
2017-10-29T01:06:06.771Z,0
2017-10-29T01:06:32.900Z,0
2017-10-29T01:06:59.022Z,0
2017-10-29T01:07:25.145Z,0
2017-10-29T01:07:51.272Z,0
2017-10-29T01:08:17.392Z,0
2017-10-29T01:08:43.513Z,0
2017-10-29T01:09:09.642Z,0
2017-10-29T01:09:35.774Z,0
2017-10-29T01:10:01.896Z,0
2017-10-29T01:10:28.018Z,0
2017-10-29T01:10:54.136Z,0
2017-10-29T01:11:20.257Z,0
2017-10-29T01:11:46.387Z,0
2017-10-29T01:12:12.513Z,0
2017-10-29T01:12:38.638Z,0
2017-10-29T01:13:04.766Z,0
2017-10-29T01:13:30.903Z,0
2017-10-29T01:13:57.030Z,0
2017-10-29T01:14:23.642Z,0
2017-10-29T01:14:49.838Z,0
2017-10-29T01:15:15.924Z,0
2017-10-29T01:15:42.052Z,0
2017-10-29T01:16:08.171Z,0
2017-10-29T01:16:34.297Z,0
2017-10-29T01:17:00.435Z,0
2017-10-29T01:17:26.559Z,0
2017-10-29T01:17:52.678Z,0
2017-10-29T01:18:18.821Z,0
2017-10-29T01:18:44.949Z,0
2017-10-29T01:19:11.091Z,0
2017-10-29T01:19:37.211Z,0
2017-10-29T01:20:03.338Z,0
2017-10-29T01:20:29.462Z,0
2017-10-29T01:20:55.588Z,0
2017-10-29T01:21:21.712Z,0
2017-10-29T01:21:47.830Z,0
2017-10-29T01:22:16.984Z,0
2017-10-29T01:22:43.105Z,0
2017-10-29T01:23:09.231Z,0
2017-10-29T01:23:35.353Z,0
2017-10-29T01:24:01.480Z,0
2017-10-29T01:24:27.596Z,0
2017-10-29T01:24:53.722Z,0
2017-10-29T01:25:19.847Z,0
2017-10-29T01:25:45.964Z,0
2017-10-29T01:26:12.087Z,0
2017-10-29T01:26:38.239Z,0
2017-10-29T01:27:04.367Z,0
2017-10-29T01:27:30.486Z,0
2017-10-29T01:27:56.614Z,0
2017-10-29T01:28:22.735Z,0
2017-10-29T01:28:48.863Z,0
2017-10-29T01:29:15.002Z,0
2017-10-29T01:29:41.101Z,0
2017-10-29T01:30:07.237Z,0
2017-10-29T01:30:33.362Z,0
2017-10-29T01:30:59.482Z,0
2017-10-29T01:31:25.607Z,0
2017-10-29T01:31:51.749Z,0
2017-10-29T01:32:17.876Z,0
2017-10-29T01:32:43.992Z,0
2017-10-29T01:33:10.122Z,0
2017-10-29T01:33:36.239Z,0
2017-10-29T01:34:02.396Z,0
2017-10-29T01:34:28.527Z,0
2017-10-29T01:34:54.641Z,0
2017-10-29T01:35:20.822Z,0
2017-10-29T01:35:46.918Z,0
2017-10-29T01:36:13.041Z,0
2017-10-29T01:36:39.161Z,0
2017-10-29T01:37:05.352Z,0
2017-10-29T01:37:31.436Z,0
2017-10-29T01:37:57.574Z,0
2017-10-29T01:38:23.706Z,0
2017-10-29T01:38:49.830Z,0
2017-10-29T01:39:15.969Z,0
2017-10-29T01:39:42.089Z,0
2017-10-29T01:40:08.207Z,0
2017-10-29T01:40:34.334Z,0
2017-10-29T01:41:00.457Z,0
2017-10-29T01:41:26.578Z,0
2017-10-29T01:41:52.706Z,0
2017-10-29T01:42:18.823Z,0
2017-10-29T01:42:44.979Z,0
2017-10-29T01:43:11.096Z,0
2017-10-29T01:43:37.217Z,0
2017-10-29T01:44:03.353Z,0
2017-10-29T01:44:29.479Z,0
2017-10-29T01:44:55.598Z,0
2017-10-29T01:45:21.723Z,0
2017-10-29T01:45:47.849Z,0
2017-10-29T01:46:13.977Z,0
2017-10-29T01:46:40.095Z,0
2017-10-29T01:47:06.232Z,0
2017-10-29T01:47:32.351Z,0
2017-10-29T01:47:58.480Z,0
2017-10-29T01:48:24.598Z,0
2017-10-29T01:48:50.719Z,0
2017-10-29T01:49:16.845Z,0
2017-10-29T01:49:42.971Z,0
2017-10-29T01:50:09.089Z,0
2017-10-29T01:50:35.239Z,0
2017-10-29T01:51:01.358Z,0
2017-10-29T01:51:27.486Z,0
2017-10-29T01:51:53.604Z,0
2017-10-29T01:52:19.725Z,0
2017-10-29T01:52:45.851Z,0
2017-10-29T01:53:11.975Z,0
2017-10-29T01:53:38.096Z,0
2017-10-29T01:54:04.219Z,0
2017-10-29T01:54:30.346Z,0
2017-10-29T01:54:56.466Z,0
2017-10-29T01:55:22.591Z,0
2017-10-29T01:55:48.710Z,0
2017-10-29T01:56:14.845Z,0
2017-10-29T01:56:40.962Z,0
2017-10-29T01:57:07.077Z,0
2017-10-29T01:57:33.202Z,0
2017-10-29T01:57:59.338Z,0
2017-10-29T01:58:25.459Z,0
2017-10-29T01:58:51.601Z,0
2017-10-29T01:59:17.694Z,0
2017-10-29T01:59:43.819Z,0
2017-10-29T02:00:09.946Z,0
2017-10-29T02:00:36.067Z,0
2017-10-29T02:01:02.220Z,0
2017-10-29T02:01:28.326Z,0
2017-10-29T02:01:54.446Z,0
2017-10-29T02:02:20.567Z,0
2017-10-29T02:02:46.699Z,0
2017-10-29T02:03:12.826Z,0
2017-10-29T02:03:38.946Z,0
2017-10-29T02:04:05.076Z,0
2017-10-29T02:04:31.193Z,0
2017-10-29T02:04:57.316Z,0
2017-10-29T02:05:23.440Z,0
2017-10-29T02:05:49.564Z,0
2017-10-29T02:06:15.709Z,0
2017-10-29T02:06:41.832Z,0
2017-10-29T02:07:07.959Z,0
2017-10-29T02:07:34.102Z,0
2017-10-29T02:08:00.227Z,0
2017-10-29T02:08:26.356Z,0
2017-10-29T02:08:52.473Z,0
2017-10-29T02:09:18.610Z,0
2017-10-29T02:09:44.729Z,0
2017-10-29T02:10:10.847Z,0
2017-10-29T02:10:36.977Z,0
2017-10-29T02:11:03.096Z,0
2017-10-29T02:11:29.217Z,0
2017-10-29T02:11:55.345Z,0
2017-10-29T02:12:21.470Z,0
2017-10-29T02:12:47.589Z,0
2017-10-29T02:13:13.712Z,0
2017-10-29T02:13:39.838Z,0
2017-10-29T02:14:05.955Z,0
2017-10-29T02:14:32.082Z,0
2017-10-29T02:14:58.208Z,0
2017-10-29T02:15:24.348Z,0
2017-10-29T02:15:50.474Z,0
2017-10-29T02:16:16.596Z,0
2017-10-29T02:16:42.715Z,0
2017-10-29T02:17:08.842Z,0
2017-10-29T02:17:34.967Z,0
2017-10-29T02:18:01.087Z,0
2017-10-29T02:18:27.205Z,0
2017-10-29T02:18:53.333Z,0
2017-10-29T02:19:19.449Z,0
2017-10-29T02:19:45.575Z,0
2017-10-29T02:20:11.727Z,0
2017-10-29T02:20:37.837Z,0
2017-10-29T02:21:03.986Z,0
2017-10-29T02:21:30.106Z,0
2017-10-29T02:21:56.226Z,0
2017-10-29T02:22:22.353Z,0
2017-10-29T02:22:48.471Z,0
2017-10-29T02:23:14.594Z,0
2017-10-29T02:23:40.729Z,0
2017-10-29T02:24:06.851Z,0
2017-10-29T02:24:32.970Z,0
2017-10-29T02:24:59.088Z,0
2017-10-29T02:25:25.211Z,0
2017-10-29T02:25:51.340Z,0
2017-10-29T02:26:17.461Z,0
2017-10-29T02:26:43.601Z,0
2017-10-29T02:27:09.723Z,0
2017-10-29T02:27:35.866Z,0
2017-10-29T02:28:01.994Z,0
2017-10-29T02:28:28.112Z,0
2017-10-29T02:28:54.239Z,0
2017-10-29T02:29:20.361Z,0
2017-10-29T02:29:46.509Z,0
2017-10-29T02:30:12.630Z,0
2017-10-29T02:30:38.778Z,0
2017-10-29T02:31:04.896Z,0
2017-10-29T02:31:31.021Z,0
2017-10-29T02:31:57.141Z,0
2017-10-29T02:32:23.266Z,0
2017-10-29T02:32:49.394Z,0
2017-10-29T02:33:15.539Z,0
2017-10-29T02:33:41.659Z,0
2017-10-29T02:34:07.787Z,0
2017-10-29T02:34:33.908Z,0
2017-10-29T02:35:00.031Z,0
2017-10-29T02:35:26.168Z,0
2017-10-29T02:35:52.296Z,0
2017-10-29T02:36:18.434Z,0
2017-10-29T02:36:44.582Z,0
2017-10-29T02:37:10.703Z,0
2017-10-29T02:37:36.825Z,0
2017-10-29T02:38:02.952Z,0
2017-10-29T02:38:29.076Z,0
2017-10-29T02:38:55.196Z,0
2017-10-29T02:39:21.317Z,0
2017-10-29T02:39:47.446Z,0
2017-10-29T02:40:13.563Z,0
2017-10-29T02:40:39.694Z,0
2017-10-29T02:41:05.830Z,0
2017-10-29T02:41:31.953Z,0
2017-10-29T02:41:58.084Z,0
2017-10-29T02:42:24.203Z,0
2017-10-29T02:42:50.327Z,0
2017-10-29T02:43:16.457Z,0
2017-10-29T02:43:42.578Z,0
2017-10-29T02:44:08.701Z,0
2017-10-29T02:44:34.814Z,0
2017-10-29T02:45:00.941Z,0
2017-10-29T02:45:27.064Z,0
2017-10-29T02:45:53.184Z,0
2017-10-29T02:46:19.308Z,0
2017-10-29T02:46:45.443Z,0
2017-10-29T02:47:11.567Z,0
2017-10-29T02:47:37.690Z,0
2017-10-29T02:48:03.810Z,0
2017-10-29T02:48:29.942Z,0
2017-10-29T02:48:56.071Z,0
2017-10-29T02:49:22.212Z,0
2017-10-29T02:49:48.351Z,0
2017-10-29T02:50:14.470Z,0
2017-10-29T02:50:40.589Z,0
2017-10-29T02:51:06.713Z,0
2017-10-29T02:51:32.833Z,0
2017-10-29T02:51:58.961Z,0
2017-10-29T02:52:25.085Z,0
2017-10-29T02:52:51.204Z,0
2017-10-29T02:53:17.325Z,0
2017-10-29T02:53:43.454Z,0
2017-10-29T02:54:09.573Z,0
2017-10-29T02:54:35.696Z,0
2017-10-29T02:55:01.822Z,0
2017-10-29T02:55:27.940Z,0
2017-10-29T02:55:54.068Z,0
2017-10-29T02:56:20.184Z,0
2017-10-29T02:56:46.305Z,0
2017-10-29T02:57:12.433Z,0
2017-10-29T02:57:38.549Z,0
2017-10-29T02:58:04.676Z,0
2017-10-29T02:58:30.799Z,0
2017-10-29T02:58:56.918Z,0
2017-10-29T02:59:23.043Z,0
2017-10-29T02:59:49.164Z,0
2017-10-29T03:00:15.283Z,0
2017-10-29T03:00:41.409Z,0
2017-10-29T03:01:07.539Z,0
2017-10-29T03:01:33.660Z,0
2017-10-29T03:01:59.783Z,0
2017-10-29T03:02:25.904Z,0
2017-10-29T03:02:52.028Z,0
2017-10-29T03:03:18.147Z,0
2017-10-29T03:03:44.274Z,0
2017-10-29T03:04:10.395Z,0
2017-10-29T03:04:36.515Z,0
2017-10-29T03:05:02.645Z,0
2017-10-29T03:05:28.760Z,0
2017-10-29T03:05:54.886Z,0
2017-10-29T03:06:21.007Z,0
2017-10-29T03:06:47.141Z,0
2017-10-29T03:07:13.277Z,0
2017-10-29T03:07:39.405Z,0
2017-10-29T03:08:05.530Z,0
2017-10-29T03:08:31.649Z,0
2017-10-29T03:08:57.779Z,0
2017-10-29T03:09:23.894Z,0
2017-10-29T03:09:50.020Z,0
2017-10-29T03:10:16.142Z,0
2017-10-29T03:10:42.264Z,0
2017-10-29T03:11:08.386Z,0
2017-10-29T03:11:34.507Z,0
2017-10-29T03:12:00.635Z,0
2017-10-29T03:12:26.777Z,0
2017-10-29T03:12:52.927Z,0
2017-10-29T03:13:19.046Z,0
2017-10-29T03:13:45.172Z,0
2017-10-29T03:14:11.293Z,0
2017-10-29T03:14:37.426Z,0
2017-10-29T03:15:03.548Z,0
2017-10-29T03:15:29.668Z,0
2017-10-29T03:15:55.794Z,0
2017-10-29T03:16:21.909Z,0
2017-10-29T03:16:48.054Z,0
2017-10-29T03:17:14.197Z,0
2017-10-29T03:17:40.331Z,0
2017-10-29T03:18:06.442Z,0
2017-10-29T03:18:32.569Z,0
2017-10-29T03:18:58.683Z,0
2017-10-29T03:19:24.815Z,0
2017-10-29T03:19:50.941Z,0
2017-10-29T03:20:17.065Z,0
2017-10-29T03:20:43.183Z,0
2017-10-29T03:21:09.312Z,0
2017-10-29T03:21:35.429Z,0
2017-10-29T03:22:01.559Z,0
2017-10-29T03:22:27.682Z,0
2017-10-29T03:22:53.810Z,0
2017-10-29T03:23:19.927Z,0
2017-10-29T03:23:46.050Z,0
2017-10-29T03:24:12.166Z,0
2017-10-29T03:24:38.290Z,0
2017-10-29T03:25:04.412Z,0
2017-10-29T03:25:30.535Z,0
2017-10-29T03:25:56.667Z,0
2017-10-29T03:26:22.780Z,0
2017-10-29T03:26:48.908Z,0
2017-10-29T03:27:15.033Z,0
2017-10-29T03:27:41.154Z,0
2017-10-29T03:28:07.301Z,0
2017-10-29T03:28:33.418Z,0
2017-10-29T03:28:59.538Z,0
2017-10-29T03:29:25.670Z,0
2017-10-29T03:29:51.783Z,0
2017-10-29T03:30:17.907Z,0
2017-10-29T03:30:44.030Z,0
2017-10-29T03:31:10.156Z,0
2017-10-29T03:31:36.278Z,0
2017-10-29T03:32:02.399Z,0
2017-10-29T03:32:28.526Z,0
2017-10-29T03:32:54.643Z,0
2017-10-29T03:33:20.764Z,0
2017-10-29T03:33:46.888Z,0
2017-10-29T03:34:13.015Z,0
2017-10-29T03:34:39.135Z,0
2017-10-29T03:35:05.254Z,0
2017-10-29T03:35:31.383Z,0
2017-10-29T03:35:57.501Z,0
2017-10-29T03:36:23.627Z,0
2017-10-29T03:36:49.772Z,0
2017-10-29T03:37:15.902Z,0
2017-10-29T03:37:42.030Z,0
2017-10-29T03:38:08.148Z,0
2017-10-29T03:38:34.269Z,0
2017-10-29T03:39:00.391Z,0
2017-10-29T03:39:26.515Z,0
2017-10-29T03:39:52.645Z,0
2017-10-29T03:40:18.762Z,0
2017-10-29T03:40:44.889Z,0
2017-10-29T03:41:11.013Z,0
2017-10-29T03:41:37.135Z,0
2017-10-29T03:42:03.264Z,0
2017-10-29T03:42:29.406Z,0
2017-10-29T03:42:55.536Z,0
2017-10-29T03:43:21.651Z,0
2017-10-29T03:43:47.790Z,0
2017-10-29T03:44:13.909Z,0
2017-10-29T03:44:40.030Z,0
2017-10-29T03:45:06.178Z,0
2017-10-29T03:45:32.299Z,0
2017-10-29T03:45:58.429Z,0
2017-10-29T03:46:24.553Z,0
2017-10-29T03:46:50.704Z,0
2017-10-29T03:47:16.792Z,0
2017-10-29T03:47:42.911Z,0
2017-10-29T03:48:09.039Z,0
2017-10-29T03:48:35.156Z,0
2017-10-29T03:49:01.302Z,0
2017-10-29T03:49:27.409Z,0
2017-10-29T03:49:53.526Z,0
2017-10-29T03:50:19.654Z,0
2017-10-29T03:50:45.798Z,0
2017-10-29T03:51:11.918Z,0
2017-10-29T03:51:38.042Z,0
2017-10-29T03:52:04.158Z,0
2017-10-29T03:52:30.283Z,0
2017-10-29T03:52:56.405Z,0
2017-10-29T03:53:22.524Z,0
2017-10-29T03:53:48.647Z,0
2017-10-29T03:54:14.775Z,0
2017-10-29T03:54:40.892Z,0
2017-10-29T03:55:07.012Z,0
2017-10-29T03:55:33.140Z,0
2017-10-29T03:55:59.256Z,0
2017-10-29T03:56:25.384Z,0
2017-10-29T03:56:51.501Z,0
2017-10-29T03:57:17.645Z,0
2017-10-29T03:57:43.768Z,0
2017-10-29T03:58:09.890Z,0
2017-10-29T03:58:36.006Z,0
2017-10-29T03:59:02.141Z,0
2017-10-29T03:59:28.259Z,0
2017-10-29T03:59:54.420Z,0
2017-10-29T04:00:20.503Z,0
2017-10-29T04:00:46.643Z,0
2017-10-29T04:01:12.771Z,0
2017-10-29T04:01:38.893Z,0
2017-10-29T04:02:05.012Z,0
2017-10-29T04:02:31.132Z,0
2017-10-29T04:02:57.259Z,0
2017-10-29T04:03:23.379Z,0
2017-10-29T04:03:49.505Z,0
2017-10-29T04:04:15.627Z,0
2017-10-29T04:04:41.750Z,0
2017-10-29T04:05:07.870Z,0
2017-10-29T04:05:33.989Z,0
2017-10-29T04:06:00.124Z,0
2017-10-29T04:06:26.250Z,0
2017-10-29T04:06:52.369Z,0
2017-10-29T04:07:18.489Z,0
2017-10-29T04:07:44.611Z,0
2017-10-29T04:08:10.734Z,0
2017-10-29T04:08:36.852Z,0
2017-10-29T04:09:02.982Z,0
2017-10-29T04:09:29.103Z,0
2017-10-29T04:09:55.219Z,0
2017-10-29T04:10:21.346Z,0
2017-10-29T04:10:47.494Z,0
2017-10-29T04:11:13.614Z,0
2017-10-29T04:11:39.738Z,0
2017-10-29T04:12:05.857Z,0
2017-10-29T04:12:31.975Z,0
2017-10-29T04:12:58.104Z,0
2017-10-29T04:13:24.228Z,0
2017-10-29T04:13:50.344Z,0
2017-10-29T04:14:16.473Z,0
2017-10-29T04:14:42.593Z,0
2017-10-29T04:15:08.729Z,0
2017-10-29T04:15:34.853Z,0
2017-10-29T04:16:00.975Z,0
2017-10-29T04:16:27.102Z,0
2017-10-29T04:16:53.228Z,0
2017-10-29T04:17:19.349Z,0
2017-10-29T04:17:45.474Z,0
2017-10-29T04:18:11.590Z,0
2017-10-29T04:18:37.717Z,0
2017-10-29T04:19:03.858Z,0
2017-10-29T04:19:29.978Z,0
2017-10-29T04:19:56.107Z,0
2017-10-29T04:20:22.224Z,0
2017-10-29T04:20:48.355Z,0
2017-10-29T04:21:14.476Z,0
2017-10-29T04:21:40.597Z,0
2017-10-29T04:22:06.720Z,0
2017-10-29T04:22:32.834Z,0
2017-10-29T04:22:58.962Z,0
2017-10-29T04:23:25.083Z,0
2017-10-29T04:23:51.224Z,0
2017-10-29T04:24:17.349Z,0
2017-10-29T04:24:43.472Z,0
2017-10-29T04:25:09.600Z,0
2017-10-29T04:25:35.723Z,0
2017-10-29T04:26:01.848Z,0
2017-10-29T04:26:27.988Z,0
2017-10-29T04:26:54.119Z,0
2017-10-29T04:27:20.232Z,0
2017-10-29T04:27:46.356Z,0
2017-10-29T04:28:12.482Z,0
2017-10-29T04:28:38.603Z,0
2017-10-29T04:29:04.724Z,0
2017-10-29T04:29:30.853Z,0
2017-10-29T04:29:56.980Z,0
2017-10-29T04:30:23.108Z,0
2017-10-29T04:30:49.225Z,0
2017-10-29T04:31:15.342Z,0
2017-10-29T04:31:41.471Z,0
2017-10-29T04:32:07.589Z,0
2017-10-29T04:32:33.705Z,0
2017-10-29T04:32:59.833Z,0
2017-10-29T04:33:25.956Z,0
2017-10-29T04:33:52.072Z,0
2017-10-29T04:34:18.220Z,0
2017-10-29T04:34:44.338Z,0
2017-10-29T04:35:10.483Z,0
2017-10-29T04:35:36.600Z,0
2017-10-29T04:36:02.720Z,0
2017-10-29T04:36:28.842Z,0
2017-10-29T04:36:54.966Z,0
2017-10-29T04:37:21.094Z,0
2017-10-29T04:37:47.211Z,0
2017-10-29T04:38:13.339Z,0
2017-10-29T04:38:39.464Z,0
2017-10-29T04:39:05.582Z,0
2017-10-29T04:39:31.708Z,0
2017-10-29T04:39:57.830Z,0
2017-10-29T04:40:23.956Z,0
2017-10-29T04:40:50.073Z,0
2017-10-29T04:41:16.202Z,0
2017-10-29T04:41:42.324Z,0
2017-10-29T04:42:08.440Z,0
2017-10-29T04:42:34.569Z,0
2017-10-29T04:43:00.687Z,0
2017-10-29T04:43:26.809Z,0
2017-10-29T04:43:52.927Z,0
2017-10-29T04:44:19.055Z,0
2017-10-29T04:44:45.177Z,0
2017-10-29T04:45:11.305Z,0
2017-10-29T04:45:37.436Z,0
2017-10-29T04:46:03.545Z,0
2017-10-29T04:46:29.674Z,0
2017-10-29T04:46:55.798Z,0
2017-10-29T04:47:21.924Z,0
2017-10-29T04:47:48.041Z,0
2017-10-29T04:48:14.169Z,0
2017-10-29T04:48:40.290Z,0
2017-10-29T04:49:06.405Z,0
2017-10-29T04:49:32.526Z,0
2017-10-29T04:49:58.654Z,0
2017-10-29T04:50:24.779Z,0
2017-10-29T04:50:50.907Z,0
2017-10-29T04:51:17.026Z,0
2017-10-29T04:51:43.152Z,0
2017-10-29T04:52:09.273Z,0
2017-10-29T04:52:35.396Z,0
2017-10-29T04:53:01.515Z,0
2017-10-29T04:53:27.637Z,0
2017-10-29T04:53:53.759Z,0
2017-10-29T04:54:19.882Z,0
2017-10-29T04:54:46.000Z,0
2017-10-29T04:55:12.125Z,0
2017-10-29T04:55:38.243Z,0
2017-10-29T04:56:04.366Z,0
2017-10-29T04:56:30.498Z,0
2017-10-29T04:56:56.613Z,0
2017-10-29T04:57:22.740Z,0
2017-10-29T04:57:48.863Z,0
2017-10-29T04:58:14.982Z,0
2017-10-29T04:58:41.107Z,0
2017-10-29T04:59:07.227Z,0
2017-10-29T04:59:33.348Z,0
2017-10-29T04:59:59.471Z,0
2017-10-29T05:00:25.593Z,0
2017-10-29T05:00:51.721Z,0
2017-10-29T05:01:17.839Z,0
2017-10-29T05:01:43.966Z,0
2017-10-29T05:02:10.090Z,0
2017-10-29T05:02:36.206Z,0
2017-10-29T05:03:02.329Z,0
2017-10-29T05:03:28.481Z,0
2017-10-29T05:03:54.595Z,0
2017-10-29T05:04:20.720Z,0
2017-10-29T05:04:46.847Z,0
2017-10-29T05:05:12.965Z,0
2017-10-29T05:05:39.092Z,0
2017-10-29T05:06:05.214Z,0
2017-10-29T05:06:31.346Z,0
2017-10-29T05:06:57.457Z,0
2017-10-29T05:07:23.587Z,0
2017-10-29T05:07:49.700Z,0
2017-10-29T05:08:15.827Z,0
2017-10-29T05:08:41.943Z,0
2017-10-29T05:09:08.068Z,0
2017-10-29T05:09:34.187Z,0
2017-10-29T05:10:00.360Z,0
2017-10-29T05:10:26.482Z,0
2017-10-29T05:10:52.601Z,0
2017-10-29T05:11:18.736Z,0
2017-10-29T05:11:44.850Z,0
2017-10-29T05:12:10.982Z,0
2017-10-29T05:12:37.142Z,0
2017-10-29T05:13:03.269Z,0
2017-10-29T05:13:29.396Z,0
2017-10-29T05:13:55.510Z,0
2017-10-29T05:14:21.632Z,0
2017-10-29T05:14:47.753Z,0
2017-10-29T05:15:13.873Z,0
2017-10-29T05:15:40.004Z,0
2017-10-29T05:16:06.124Z,0
2017-10-29T05:16:32.246Z,0
2017-10-29T05:16:58.368Z,0
2017-10-29T05:17:24.497Z,0
2017-10-29T05:17:50.615Z,0
2017-10-29T05:18:16.742Z,0
2017-10-29T05:18:42.886Z,0
2017-10-29T05:19:09.003Z,0
2017-10-29T05:19:35.123Z,0
2017-10-29T05:20:01.250Z,0
2017-10-29T05:20:27.394Z,0
2017-10-29T05:20:53.516Z,0
2017-10-29T05:21:19.640Z,0
2017-10-29T05:21:45.757Z,0
2017-10-29T05:22:11.887Z,0
2017-10-29T05:22:38.007Z,0
2017-10-29T05:23:04.130Z,0
2017-10-29T05:23:30.257Z,0
2017-10-29T05:23:56.381Z,0
2017-10-29T05:24:22.497Z,0
2017-10-29T05:24:48.624Z,0
2017-10-29T05:25:14.742Z,0
2017-10-29T05:25:40.869Z,0
2017-10-29T05:26:07.007Z,0
2017-10-29T05:26:33.130Z,0
2017-10-29T05:26:59.259Z,0
2017-10-29T05:27:25.377Z,0
2017-10-29T05:27:51.507Z,0
2017-10-29T05:28:17.624Z,0
2017-10-29T05:28:43.745Z,0
2017-10-29T05:29:09.870Z,0
2017-10-29T05:29:35.989Z,0
2017-10-29T05:30:02.131Z,0
2017-10-29T05:30:28.258Z,0
2017-10-29T05:30:54.377Z,0
2017-10-29T05:31:20.518Z,0
2017-10-29T05:31:46.683Z,0
2017-10-29T05:32:12.807Z,0
2017-10-29T05:32:38.929Z,0
2017-10-29T05:33:05.048Z,0
2017-10-29T05:33:31.172Z,0
2017-10-29T05:33:57.292Z,0
2017-10-29T05:34:23.410Z,0
2017-10-29T05:34:49.554Z,0
2017-10-29T05:35:15.675Z,0
2017-10-29T05:35:41.804Z,0
2017-10-29T05:36:07.929Z,0
2017-10-29T05:36:34.046Z,0
2017-10-29T05:37:00.191Z,0
2017-10-29T05:37:26.314Z,0
2017-10-29T05:37:52.430Z,0
2017-10-29T05:38:18.563Z,0
2017-10-29T05:38:44.676Z,0
2017-10-29T05:39:10.798Z,0
2017-10-29T05:39:36.926Z,0
2017-10-29T05:40:03.043Z,0
2017-10-29T05:40:29.163Z,0
2017-10-29T05:40:55.311Z,0
2017-10-29T05:41:21.431Z,0
2017-10-29T05:41:47.551Z,0
2017-10-29T05:42:13.678Z,0
2017-10-29T05:42:39.798Z,0
2017-10-29T05:43:05.922Z,0
2017-10-29T05:43:32.043Z,0
2017-10-29T05:43:58.165Z,4
2017-10-29T05:44:24.283Z,4
2017-10-29T05:44:50.411Z,0
2017-10-29T05:45:16.529Z,0
2017-10-29T05:45:42.649Z,4
2017-10-29T05:46:08.772Z,4
2017-10-29T05:46:34.890Z,4
2017-10-29T05:47:01.019Z,4
2017-10-29T05:47:27.138Z,4
2017-10-29T05:47:53.264Z,4
2017-10-29T05:48:19.380Z,4
2017-10-29T05:48:45.504Z,8
2017-10-29T05:49:11.631Z,8
2017-10-29T05:49:37.750Z,4
2017-10-29T05:50:03.877Z,8
2017-10-29T05:50:29.995Z,4
2017-10-29T05:50:56.118Z,8
2017-10-29T05:51:22.241Z,8
2017-10-29T05:51:48.382Z,12
2017-10-29T05:52:14.513Z,12
2017-10-29T05:52:40.634Z,12
2017-10-29T05:53:06.759Z,12
2017-10-29T05:53:32.893Z,16
2017-10-29T05:53:59.017Z,12
2017-10-29T05:54:25.131Z,16
2017-10-29T05:54:51.260Z,20
2017-10-29T05:55:17.389Z,24
2017-10-29T05:55:43.515Z,20
2017-10-29T05:56:09.641Z,24
2017-10-29T05:56:35.758Z,24
2017-10-29T05:57:01.887Z,28
2017-10-29T05:57:28.002Z,32
2017-10-29T05:57:54.132Z,32
2017-10-29T05:58:20.253Z,32
2017-10-29T05:58:46.381Z,36
2017-10-29T05:59:12.496Z,40
2017-10-29T05:59:38.617Z,44
2017-10-29T06:00:04.738Z,52
2017-10-29T06:00:30.865Z,52
2017-10-29T06:00:56.986Z,56
2017-10-29T06:01:23.118Z,60
2017-10-29T06:01:49.260Z,64
2017-10-29T06:02:15.376Z,72
2017-10-29T06:02:41.503Z,72
2017-10-29T06:03:07.626Z,76
2017-10-29T06:03:33.752Z,84
2017-10-29T06:03:59.872Z,92
2017-10-29T06:04:25.995Z,96
2017-10-29T06:04:52.111Z,104
2017-10-29T06:05:18.238Z,108
2017-10-29T06:05:44.357Z,116
2017-10-29T06:06:10.484Z,120
2017-10-29T06:06:36.605Z,132
2017-10-29T06:07:02.729Z,136
2017-10-29T06:07:28.851Z,144
2017-10-29T06:07:54.967Z,152
2017-10-29T06:08:21.095Z,164
2017-10-29T06:08:47.223Z,172
2017-10-29T06:09:13.343Z,180
2017-10-29T06:09:39.466Z,188
2017-10-29T06:10:05.584Z,196
2017-10-29T06:10:31.705Z,208
2017-10-29T06:10:57.830Z,220
2017-10-29T06:11:23.946Z,228
2017-10-29T06:11:50.072Z,240
2017-10-29T06:12:16.199Z,252
2017-10-29T06:12:42.316Z,264
2017-10-29T06:13:08.443Z,272
2017-10-29T06:13:34.567Z,284
2017-10-29T06:14:00.689Z,300
2017-10-29T06:14:26.808Z,316
2017-10-29T06:14:52.934Z,324
2017-10-29T06:15:19.058Z,340
2017-10-29T06:15:45.185Z,352
2017-10-29T06:16:11.304Z,368
2017-10-29T06:16:37.425Z,376
2017-10-29T06:17:03.551Z,396
2017-10-29T06:17:29.673Z,412
2017-10-29T06:17:55.819Z,420
2017-10-29T06:18:21.936Z,420
2017-10-29T06:18:48.053Z,440
2017-10-29T06:19:14.181Z,448
2017-10-29T06:19:40.305Z,448
2017-10-29T06:20:06.426Z,456
2017-10-29T06:20:32.550Z,464
2017-10-29T06:20:58.667Z,488
2017-10-29T06:21:24.787Z,516
2017-10-29T06:21:50.914Z,524
2017-10-29T06:22:17.039Z,528
2017-10-29T06:22:43.153Z,552
2017-10-29T06:23:09.279Z,572
2017-10-29T06:23:35.415Z,592
2017-10-29T06:24:01.535Z,600
2017-10-29T06:24:27.659Z,600